sensor_id;sensor_type;location;lat;lon;timestamp;temperature;humidity
28247;DHT22;66191;53.178;22.058;2023-04-19T00:02:16;9.10;99.90
28247;DHT22;66191;53.178;22.058;2023-04-19T00:04:47;9.00;99.90
28247;DHT22;66191;53.178;22.058;2023-04-19T00:07:19;9.00;99.90
28247;DHT22;66191;53.178;22.058;2023-04-19T00:09:50;9.00;99.90
28247;DHT22;66191;53.178;22.058;2023-04-19T00:12:27;9.00;99.90
28247;DHT22;66191;53.178;22.058;2023-04-19T00:14:58;9.00;99.90
28247;DHT22;66191;53.178;22.058;2023-04-19T00:17:29;9.00;99.90
28247;DHT22;66191;53.178;22.058;2023-04-19T00:20:02;8.90;99.90
28247;DHT22;66191;53.178;22.058;2023-04-19T00:22:34;8.90;99.90
28247;DHT22;66191;53.178;22.058;2023-04-19T00:25:05;8.80;99.90
28247;DHT22;66191;53.178;22.058;2023-04-19T00:27:39;8.80;99.90
28247;DHT22;66191;53.178;22.058;2023-04-19T00:30:11;8.80;99.90
28247;DHT22;66191;53.178;22.058;2023-04-19T00:32:42;8.70;99.90
28247;DHT22;66191;53.178;22.058;2023-04-19T00:35:14;8.70;99.90
28247;DHT22;66191;53.178;22.058;2023-04-19T00:37:46;8.70;99.90
28247;DHT22;66191;53.178;22.058;2023-04-19T00:40:17;8.70;99.90
28247;DHT22;66191;53.178;22.058;2023-04-19T00:42:51;8.70;99.90
28247;DHT22;66191;53.178;22.058;2023-04-19T00:45:23;8.80;99.90
28247;DHT22;66191;53.178;22.058;2023-04-19T00:47:55;8.80;99.90
28247;DHT22;66191;53.178;22.058;2023-04-19T00:50:26;8.80;99.90
28247;DHT22;66191;53.178;22.058;2023-04-19T00:52:58;8.80;99.90
28247;DHT22;66191;53.178;22.058;2023-04-19T00:55:30;8.80;99.90
28247;DHT22;66191;53.178;22.058;2023-04-19T00:58:04;8.80;99.90
28247;DHT22;66191;53.178;22.058;2023-04-19T01:00:36;8.80;99.90
28247;DHT22;66191;53.178;22.058;2023-04-19T01:03:07;8.80;99.90
28247;DHT22;66191;53.178;22.058;2023-04-19T01:05:41;8.80;99.90
28247;DHT22;66191;53.178;22.058;2023-04-19T01:08:12;8.80;99.90
28247;DHT22;66191;53.178;22.058;2023-04-19T01:10:44;8.80;99.90
28247;DHT22;66191;53.178;22.058;2023-04-19T01:13:18;8.80;99.90
28247;DHT22;66191;53.178;22.058;2023-04-19T01:15:49;8.90;99.90
28247;DHT22;66191;53.178;22.058;2023-04-19T01:18:21;8.80;99.90
28247;DHT22;66191;53.178;22.058;2023-04-19T01:20:59;8.80;99.90
28247;DHT22;66191;53.178;22.058;2023-04-19T01:23:34;8.90;99.90
28247;DHT22;66191;53.178;22.058;2023-04-19T01:26:06;8.90;99.90
28247;DHT22;66191;53.178;22.058;2023-04-19T01:28:37;8.90;99.90
28247;DHT22;66191;53.178;22.058;2023-04-19T01:31:08;8.90;99.90
28247;DHT22;66191;53.178;22.058;2023-04-19T01:33:41;8.90;99.90
28247;DHT22;66191;53.178;22.058;2023-04-19T01:36:15;8.90;99.90
28247;DHT22;66191;53.178;22.058;2023-04-19T01:38:49;8.90;99.90
28247;DHT22;66191;53.178;22.058;2023-04-19T01:41:20;8.90;99.90
28247;DHT22;66191;53.178;22.058;2023-04-19T01:43:54;8.90;99.90
28247;DHT22;66191;53.178;22.058;2023-04-19T01:46:25;8.90;99.90
28247;DHT22;66191;53.178;22.058;2023-04-19T01:48:56;8.90;99.90
28247;DHT22;66191;53.178;22.058;2023-04-19T01:51:28;8.90;99.90
28247;DHT22;66191;53.178;22.058;2023-04-19T01:54:03;8.90;99.90
28247;DHT22;66191;53.178;22.058;2023-04-19T01:56:34;8.80;99.90
28247;DHT22;66191;53.178;22.058;2023-04-19T01:59:06;8.80;99.90
28247;DHT22;66191;53.178;22.058;2023-04-19T02:01:37;8.80;99.90
28247;DHT22;66191;53.178;22.058;2023-04-19T02:04:09;8.80;99.90
28247;DHT22;66191;53.178;22.058;2023-04-19T02:06:40;8.80;99.90
28247;DHT22;66191;53.178;22.058;2023-04-19T02:09:14;8.80;99.90
28247;DHT22;66191;53.178;22.058;2023-04-19T02:11:46;8.80;99.90
28247;DHT22;66191;53.178;22.058;2023-04-19T02:14:18;8.70;99.90
28247;DHT22;66191;53.178;22.058;2023-04-19T02:16:49;8.70;99.90
28247;DHT22;66191;53.178;22.058;2023-04-19T02:19:20;8.70;99.90
28247;DHT22;66191;53.178;22.058;2023-04-19T02:21:52;8.70;99.90
28247;DHT22;66191;53.178;22.058;2023-04-19T02:24:28;8.70;99.90
28247;DHT22;66191;53.178;22.058;2023-04-19T02:27:00;8.70;99.90
28247;DHT22;66191;53.178;22.058;2023-04-19T02:29:33;8.70;99.90
28247;DHT22;66191;53.178;22.058;2023-04-19T02:32:04;8.70;99.90
28247;DHT22;66191;53.178;22.058;2023-04-19T02:34:38;8.70;99.90
28247;DHT22;66191;53.178;22.058;2023-04-19T02:37:10;8.70;99.90
28247;DHT22;66191;53.178;22.058;2023-04-19T02:39:47;8.70;99.90
28247;DHT22;66191;53.178;22.058;2023-04-19T02:42:20;8.70;99.90
28247;DHT22;66191;53.178;22.058;2023-04-19T02:44:53;8.70;99.90
28247;DHT22;66191;53.178;22.058;2023-04-19T02:47:32;8.60;99.90
28247;DHT22;66191;53.178;22.058;2023-04-19T02:50:09;8.60;99.90
28247;DHT22;66191;53.178;22.058;2023-04-19T02:52:46;8.60;99.90
28247;DHT22;66191;53.178;22.058;2023-04-19T02:55:23;8.60;99.90
28247;DHT22;66191;53.178;22.058;2023-04-19T02:58:05;8.60;99.90
28247;DHT22;66191;53.178;22.058;2023-04-19T03:00:44;8.60;99.90
28247;DHT22;66191;53.178;22.058;2023-04-19T03:03:19;8.60;99.90
28247;DHT22;66191;53.178;22.058;2023-04-19T03:05:51;8.70;99.90
28247;DHT22;66191;53.178;22.058;2023-04-19T03:08:23;8.70;99.90
28247;DHT22;66191;53.178;22.058;2023-04-19T03:10:58;8.60;99.90
28247;DHT22;66191;53.178;22.058;2023-04-19T03:13:31;8.60;99.90
28247;DHT22;66191;53.178;22.058;2023-04-19T03:16:03;8.60;99.90
28247;DHT22;66191;53.178;22.058;2023-04-19T03:18:37;8.60;99.90
28247;DHT22;66191;53.178;22.058;2023-04-19T03:21:10;8.60;99.90
28247;DHT22;66191;53.178;22.058;2023-04-19T03:23:54;8.60;99.90
28247;DHT22;66191;53.178;22.058;2023-04-19T03:26:33;8.60;99.90
28247;DHT22;66191;53.178;22.058;2023-04-19T03:29:05;8.60;99.90
28247;DHT22;66191;53.178;22.058;2023-04-19T03:31:41;8.60;99.90
28247;DHT22;66191;53.178;22.058;2023-04-19T03:34:14;8.60;99.90
28247;DHT22;66191;53.178;22.058;2023-04-19T03:36:49;8.60;99.90
28247;DHT22;66191;53.178;22.058;2023-04-19T03:39:21;8.60;99.90
28247;DHT22;66191;53.178;22.058;2023-04-19T03:42:01;8.60;99.90
28247;DHT22;66191;53.178;22.058;2023-04-19T03:44:49;8.60;99.90
28247;DHT22;66191;53.178;22.058;2023-04-19T03:47:22;8.70;99.90
28247;DHT22;66191;53.178;22.058;2023-04-19T03:49:57;8.70;99.90
28247;DHT22;66191;53.178;22.058;2023-04-19T03:52:31;8.70;99.90
28247;DHT22;66191;53.178;22.058;2023-04-19T03:55:04;8.70;99.90
28247;DHT22;66191;53.178;22.058;2023-04-19T03:57:42;8.70;99.90
28247;DHT22;66191;53.178;22.058;2023-04-19T04:00:24;8.70;99.90
28247;DHT22;66191;53.178;22.058;2023-04-19T04:03:00;8.70;99.90
28247;DHT22;66191;53.178;22.058;2023-04-19T04:05:33;8.70;99.90
28247;DHT22;66191;53.178;22.058;2023-04-19T04:08:06;8.70;99.90
28247;DHT22;66191;53.178;22.058;2023-04-19T04:10:40;8.70;99.90
28247;DHT22;66191;53.178;22.058;2023-04-19T04:13:19;8.80;99.90
28247;DHT22;66191;53.178;22.058;2023-04-19T04:16:04;8.80;99.90
28247;DHT22;66191;53.178;22.058;2023-04-19T04:18:39;8.80;99.90
28247;DHT22;66191;53.178;22.058;2023-04-19T04:21:14;8.80;99.90
28247;DHT22;66191;53.178;22.058;2023-04-19T04:23:49;8.80;99.90
28247;DHT22;66191;53.178;22.058;2023-04-19T04:26:45;8.90;99.90
28247;DHT22;66191;53.178;22.058;2023-04-19T04:29:27;8.90;99.90
28247;DHT22;66191;53.178;22.058;2023-04-19T04:32:01;8.90;99.90
28247;DHT22;66191;53.178;22.058;2023-04-19T04:34:38;8.90;99.90
28247;DHT22;66191;53.178;22.058;2023-04-19T04:37:21;8.90;99.90
28247;DHT22;66191;53.178;22.058;2023-04-19T04:39:53;9.00;99.90
28247;DHT22;66191;53.178;22.058;2023-04-19T04:42:24;9.00;99.90
28247;DHT22;66191;53.178;22.058;2023-04-19T04:45:01;9.00;99.90
28247;DHT22;66191;53.178;22.058;2023-04-19T04:47:35;9.00;99.90
28247;DHT22;66191;53.178;22.058;2023-04-19T04:50:07;9.00;99.90
28247;DHT22;66191;53.178;22.058;2023-04-19T04:52:38;9.10;99.90
28247;DHT22;66191;53.178;22.058;2023-04-19T04:55:23;9.20;99.90
28247;DHT22;66191;53.178;22.058;2023-04-19T04:57:54;9.20;99.90
28247;DHT22;66191;53.178;22.058;2023-04-19T05:00:46;9.20;99.90
28247;DHT22;66191;53.178;22.058;2023-04-19T05:03:18;9.20;99.90
28247;DHT22;66191;53.178;22.058;2023-04-19T05:05:55;9.30;99.90
28247;DHT22;66191;53.178;22.058;2023-04-19T05:08:27;9.20;99.90
28247;DHT22;66191;53.178;22.058;2023-04-19T05:11:11;9.30;99.90
28247;DHT22;66191;53.178;22.058;2023-04-19T05:13:42;9.30;99.90
28247;DHT22;66191;53.178;22.058;2023-04-19T05:16:18;9.30;99.90
28247;DHT22;66191;53.178;22.058;2023-04-19T05:18:51;9.30;99.90
28247;DHT22;66191;53.178;22.058;2023-04-19T05:21:26;9.30;99.90
28247;DHT22;66191;53.178;22.058;2023-04-19T05:23:58;9.30;99.90
28247;DHT22;66191;53.178;22.058;2023-04-19T05:26:30;9.30;99.90
28247;DHT22;66191;53.178;22.058;2023-04-19T05:29:03;9.30;99.90
28247;DHT22;66191;53.178;22.058;2023-04-19T05:31:46;9.30;99.90
28247;DHT22;66191;53.178;22.058;2023-04-19T05:34:23;9.30;99.90
28247;DHT22;66191;53.178;22.058;2023-04-19T05:36:57;9.30;99.90
28247;DHT22;66191;53.178;22.058;2023-04-19T05:39:29;9.30;99.90
28247;DHT22;66191;53.178;22.058;2023-04-19T05:42:02;9.30;99.90
28247;DHT22;66191;53.178;22.058;2023-04-19T05:44:34;9.30;99.90
28247;DHT22;66191;53.178;22.058;2023-04-19T05:47:10;9.40;99.90
28247;DHT22;66191;53.178;22.058;2023-04-19T05:49:57;9.40;99.90
28247;DHT22;66191;53.178;22.058;2023-04-19T05:52:34;9.40;99.90
28247;DHT22;66191;53.178;22.058;2023-04-19T05:55:07;9.50;99.90
28247;DHT22;66191;53.178;22.058;2023-04-19T05:57:45;9.50;99.90
28247;DHT22;66191;53.178;22.058;2023-04-19T06:00:24;9.50;99.90
28247;DHT22;66191;53.178;22.058;2023-04-19T06:03:08;9.50;99.90
28247;DHT22;66191;53.178;22.058;2023-04-19T06:05:41;9.50;99.90
28247;DHT22;66191;53.178;22.058;2023-04-19T06:08:14;9.60;99.90
28247;DHT22;66191;53.178;22.058;2023-04-19T06:10:47;9.60;99.90
28247;DHT22;66191;53.178;22.058;2023-04-19T06:13:30;9.60;99.90
28247;DHT22;66191;53.178;22.058;2023-04-19T06:16:01;9.70;99.90
28247;DHT22;66191;53.178;22.058;2023-04-19T06:18:36;9.70;99.90
28247;DHT22;66191;53.178;22.058;2023-04-19T06:21:08;9.70;99.90
28247;DHT22;66191;53.178;22.058;2023-04-19T06:23:39;9.70;99.90
28247;DHT22;66191;53.178;22.058;2023-04-19T06:26:11;9.70;99.90
28247;DHT22;66191;53.178;22.058;2023-04-19T06:28:42;9.70;99.90
28247;DHT22;66191;53.178;22.058;2023-04-19T06:31:14;9.80;99.90
28247;DHT22;66191;53.178;22.058;2023-04-19T06:33:48;9.90;99.90
28247;DHT22;66191;53.178;22.058;2023-04-19T06:36:21;9.90;99.80
28247;DHT22;66191;53.178;22.058;2023-04-19T06:38:52;10.00;99.60
28247;DHT22;66191;53.178;22.058;2023-04-19T06:41:23;10.00;99.30
28247;DHT22;66191;53.178;22.058;2023-04-19T06:43:54;10.10;99.20
28247;DHT22;66191;53.178;22.058;2023-04-19T06:46:26;10.00;99.20
28247;DHT22;66191;53.178;22.058;2023-04-19T06:49:00;10.10;99.20
28247;DHT22;66191;53.178;22.058;2023-04-19T06:51:31;10.00;99.00
28247;DHT22;66191;53.178;22.058;2023-04-19T06:54:03;10.00;98.60
28247;DHT22;66191;53.178;22.058;2023-04-19T06:56:39;10.00;98.60
28247;DHT22;66191;53.178;22.058;2023-04-19T06:59:13;9.90;98.80
28247;DHT22;66191;53.178;22.058;2023-04-19T07:01:45;9.90;98.70
28247;DHT22;66191;53.178;22.058;2023-04-19T07:04:19;10.00;98.90
28247;DHT22;66191;53.178;22.058;2023-04-19T07:06:51;10.00;98.30
28247;DHT22;66191;53.178;22.058;2023-04-19T07:09:22;9.90;98.30
28247;DHT22;66191;53.178;22.058;2023-04-19T07:11:54;9.90;98.10
28247;DHT22;66191;53.178;22.058;2023-04-19T07:14:25;9.90;98.40
28247;DHT22;66191;53.178;22.058;2023-04-19T07:16:57;9.90;98.40
28247;DHT22;66191;53.178;22.058;2023-04-19T07:19:32;10.00;98.60
28247;DHT22;66191;53.178;22.058;2023-04-19T07:22:04;10.00;98.40
28247;DHT22;66191;53.178;22.058;2023-04-19T07:24:37;10.00;98.20
28247;DHT22;66191;53.178;22.058;2023-04-19T07:27:09;10.00;98.40
28247;DHT22;66191;53.178;22.058;2023-04-19T07:29:42;10.00;98.20
28247;DHT22;66191;53.178;22.058;2023-04-19T07:32:14;10.00;98.40
28247;DHT22;66191;53.178;22.058;2023-04-19T07:34:49;10.10;98.60
28247;DHT22;66191;53.178;22.058;2023-04-19T07:37:20;10.20;98.60
28247;DHT22;66191;53.178;22.058;2023-04-19T07:39:52;10.30;98.10
28247;DHT22;66191;53.178;22.058;2023-04-19T07:42:23;10.40;98.30
28247;DHT22;66191;53.178;22.058;2023-04-19T07:44:56;10.40;97.90
28247;DHT22;66191;53.178;22.058;2023-04-19T07:47:27;10.50;97.90
28247;DHT22;66191;53.178;22.058;2023-04-19T07:50:01;10.50;97.70
28247;DHT22;66191;53.178;22.058;2023-04-19T07:52:34;10.50;97.60
28247;DHT22;66191;53.178;22.058;2023-04-19T07:55:06;10.60;97.50
28247;DHT22;66191;53.178;22.058;2023-04-19T07:57:38;10.50;97.50
28247;DHT22;66191;53.178;22.058;2023-04-19T08:00:14;10.50;97.40
28247;DHT22;66191;53.178;22.058;2023-04-19T08:02:45;10.50;97.50
28247;DHT22;66191;53.178;22.058;2023-04-19T08:05:21;10.40;97.80
28247;DHT22;66191;53.178;22.058;2023-04-19T08:07:54;10.40;97.80
28247;DHT22;66191;53.178;22.058;2023-04-19T08:10:26;10.40;97.80
28247;DHT22;66191;53.178;22.058;2023-04-19T08:12:57;10.40;97.80
28247;DHT22;66191;53.178;22.058;2023-04-19T08:15:33;10.40;97.80
28247;DHT22;66191;53.178;22.058;2023-04-19T08:18:25;10.40;97.90
28247;DHT22;66191;53.178;22.058;2023-04-19T08:21:00;10.40;98.00
28247;DHT22;66191;53.178;22.058;2023-04-19T08:23:32;10.40;98.30
28247;DHT22;66191;53.178;22.058;2023-04-19T08:26:14;10.40;98.50
28247;DHT22;66191;53.178;22.058;2023-04-19T08:28:46;10.40;98.30
28247;DHT22;66191;53.178;22.058;2023-04-19T08:31:19;10.40;98.30
28247;DHT22;66191;53.178;22.058;2023-04-19T08:33:51;10.40;98.30
28247;DHT22;66191;53.178;22.058;2023-04-19T08:36:27;10.40;98.50
28247;DHT22;66191;53.178;22.058;2023-04-19T08:39:05;10.40;98.50
28247;DHT22;66191;53.178;22.058;2023-04-19T08:41:56;10.50;98.50
28247;DHT22;66191;53.178;22.058;2023-04-19T08:44:44;10.50;98.30
28247;DHT22;66191;53.178;22.058;2023-04-19T08:47:37;10.50;98.40
28247;DHT22;66191;53.178;22.058;2023-04-19T08:50:26;10.50;98.40
28247;DHT22;66191;53.178;22.058;2023-04-19T08:53:10;10.60;98.60
28247;DHT22;66191;53.178;22.058;2023-04-19T08:55:52;10.60;98.50
28247;DHT22;66191;53.178;22.058;2023-04-19T08:58:30;10.70;98.40
28247;DHT22;66191;53.178;22.058;2023-04-19T09:01:21;10.80;98.10
28247;DHT22;66191;53.178;22.058;2023-04-19T09:04:03;10.90;98.20
28247;DHT22;66191;53.178;22.058;2023-04-19T09:06:55;11.00;97.90
28247;DHT22;66191;53.178;22.058;2023-04-19T09:09:30;11.10;98.00
28247;DHT22;66191;53.178;22.058;2023-04-19T09:12:18;11.20;98.00
28247;DHT22;66191;53.178;22.058;2023-04-19T09:14:50;11.30;97.20
28247;DHT22;66191;53.178;22.058;2023-04-19T09:17:29;11.40;97.50
28247;DHT22;66191;53.178;22.058;2023-04-19T09:20:01;11.50;97.20
28247;DHT22;66191;53.178;22.058;2023-04-19T09:22:34;11.60;96.80
28247;DHT22;66191;53.178;22.058;2023-04-19T09:25:08;11.70;96.20
28247;DHT22;66191;53.178;22.058;2023-04-19T09:28:09;11.70;96.00
28247;DHT22;66191;53.178;22.058;2023-04-19T09:30:43;11.80;95.90
28247;DHT22;66191;53.178;22.058;2023-04-19T09:33:34;11.90;96.00
28247;DHT22;66191;53.178;22.058;2023-04-19T09:36:07;12.00;95.90
28247;DHT22;66191;53.178;22.058;2023-04-19T09:38:45;12.00;95.90
28247;DHT22;66191;53.178;22.058;2023-04-19T09:41:20;12.10;95.80
28247;DHT22;66191;53.178;22.058;2023-04-19T09:43:52;12.10;95.70
28247;DHT22;66191;53.178;22.058;2023-04-19T09:46:44;12.20;95.30
28247;DHT22;66191;53.178;22.058;2023-04-19T09:49:20;12.20;95.30
28247;DHT22;66191;53.178;22.058;2023-04-19T09:52:08;12.30;95.50
28247;DHT22;66191;53.178;22.058;2023-04-19T09:54:40;12.40;95.50
28247;DHT22;66191;53.178;22.058;2023-04-19T09:57:15;12.40;95.20
28247;DHT22;66191;53.178;22.058;2023-04-19T09:59:47;12.40;95.40
28247;DHT22;66191;53.178;22.058;2023-04-19T10:02:19;12.50;94.90
28247;DHT22;66191;53.178;22.058;2023-04-19T10:04:52;12.50;95.00
28247;DHT22;66191;53.178;22.058;2023-04-19T10:07:46;12.40;94.50
28247;DHT22;66191;53.178;22.058;2023-04-19T10:10:24;12.50;94.90
28247;DHT22;66191;53.178;22.058;2023-04-19T10:13:02;12.50;94.90
28247;DHT22;66191;53.178;22.058;2023-04-19T10:15:46;12.60;95.20
28247;DHT22;66191;53.178;22.058;2023-04-19T10:18:46;12.70;94.80
28247;DHT22;66191;53.178;22.058;2023-04-19T10:21:17;12.80;94.80
28247;DHT22;66191;53.178;22.058;2023-04-19T10:23:49;12.80;94.70
28247;DHT22;66191;53.178;22.058;2023-04-19T10:26:20;12.90;94.60
28247;DHT22;66191;53.178;22.058;2023-04-19T10:28:55;12.90;94.30
28247;DHT22;66191;53.178;22.058;2023-04-19T10:31:26;12.90;94.70
28247;DHT22;66191;53.178;22.058;2023-04-19T10:33:57;13.00;94.20
28247;DHT22;66191;53.178;22.058;2023-04-19T10:36:28;13.10;94.20
28247;DHT22;66191;53.178;22.058;2023-04-19T10:39:00;13.20;94.20
28247;DHT22;66191;53.178;22.058;2023-04-19T10:44:20;13.30;94.40
28247;DHT22;66191;53.178;22.058;2023-04-19T10:46:51;13.40;94.00
28247;DHT22;66191;53.178;22.058;2023-04-19T10:49:22;13.40;93.90
28247;DHT22;66191;53.178;22.058;2023-04-19T10:51:53;13.50;93.70
28247;DHT22;66191;53.178;22.058;2023-04-19T10:54:28;13.50;93.50
28247;DHT22;66191;53.178;22.058;2023-04-19T10:56:59;13.60;93.50
28247;DHT22;66191;53.178;22.058;2023-04-19T10:59:35;13.60;93.40
28247;DHT22;66191;53.178;22.058;2023-04-19T11:04:59;13.80;93.50
28247;DHT22;66191;53.178;22.058;2023-04-19T11:07:37;13.90;92.90
28247;DHT22;66191;53.178;22.058;2023-04-19T11:10:09;14.00;92.60
28247;DHT22;66191;53.178;22.058;2023-04-19T11:12:41;14.20;92.70
28247;DHT22;66191;53.178;22.058;2023-04-19T11:15:14;14.30;92.10
28247;DHT22;66191;53.178;22.058;2023-04-19T11:17:48;14.40;92.50
28247;DHT22;66191;53.178;22.058;2023-04-19T11:20:41;14.50;92.40
28247;DHT22;66191;53.178;22.058;2023-04-19T11:23:15;14.50;92.20
28247;DHT22;66191;53.178;22.058;2023-04-19T11:25:47;14.60;92.00
28247;DHT22;66191;53.178;22.058;2023-04-19T11:28:20;14.60;91.40
28247;DHT22;66191;53.178;22.058;2023-04-19T11:30:54;14.70;91.40
28247;DHT22;66191;53.178;22.058;2023-04-19T11:33:26;14.70;91.30
28247;DHT22;66191;53.178;22.058;2023-04-19T11:35:57;14.70;91.30
28247;DHT22;66191;53.178;22.058;2023-04-19T11:38:28;14.90;91.20
28247;DHT22;66191;53.178;22.058;2023-04-19T11:41:00;14.90;90.60
28247;DHT22;66191;53.178;22.058;2023-04-19T11:43:32;15.00;90.50
28247;DHT22;66191;53.178;22.058;2023-04-19T11:46:06;15.10;90.30
28247;DHT22;66191;53.178;22.058;2023-04-19T11:48:49;15.10;89.80
28247;DHT22;66191;53.178;22.058;2023-04-19T11:51:20;15.10;88.70
28247;DHT22;66191;53.178;22.058;2023-04-19T11:53:51;15.10;89.30
28247;DHT22;66191;53.178;22.058;2023-04-19T11:56:23;15.10;89.20
28247;DHT22;66191;53.178;22.058;2023-04-19T11:58:56;15.10;88.50
28247;DHT22;66191;53.178;22.058;2023-04-19T12:01:30;15.10;89.60
28247;DHT22;66191;53.178;22.058;2023-04-19T12:04:02;15.10;89.30
28247;DHT22;66191;53.178;22.058;2023-04-19T12:06:34;15.10;87.10
28247;DHT22;66191;53.178;22.058;2023-04-19T12:09:06;15.20;87.00
28247;DHT22;66191;53.178;22.058;2023-04-19T12:11:41;15.30;86.60
28247;DHT22;66191;53.178;22.058;2023-04-19T12:14:13;15.30;85.90
28247;DHT22;66191;53.178;22.058;2023-04-19T12:19:41;15.40;84.30
28247;DHT22;66191;53.178;22.058;2023-04-19T12:22:13;15.40;84.50
28247;DHT22;66191;53.178;22.058;2023-04-19T12:24:49;15.40;85.00
28247;DHT22;66191;53.178;22.058;2023-04-19T12:27:21;15.40;84.70
28247;DHT22;66191;53.178;22.058;2023-04-19T12:29:53;15.40;85.00
28247;DHT22;66191;53.178;22.058;2023-04-19T12:32:24;15.50;85.20
28247;DHT22;66191;53.178;22.058;2023-04-19T12:34:58;15.50;82.00
28247;DHT22;66191;53.178;22.058;2023-04-19T12:37:29;15.50;81.70
28247;DHT22;66191;53.178;22.058;2023-04-19T12:40:00;15.60;80.60
28247;DHT22;66191;53.178;22.058;2023-04-19T12:42:32;15.50;80.00
28247;DHT22;66191;53.178;22.058;2023-04-19T12:45:03;15.60;80.50
28247;DHT22;66191;53.178;22.058;2023-04-19T12:47:36;15.70;77.10
28247;DHT22;66191;53.178;22.058;2023-04-19T12:50:11;15.90;77.40
28247;DHT22;66191;53.178;22.058;2023-04-19T12:52:43;16.00;75.90
28247;DHT22;66191;53.178;22.058;2023-04-19T12:55:14;16.10;71.40
28247;DHT22;66191;53.178;22.058;2023-04-19T12:57:45;16.10;71.10
28247;DHT22;66191;53.178;22.058;2023-04-19T13:00:17;16.10;71.70
28247;DHT22;66191;53.178;22.058;2023-04-19T13:02:49;16.10;68.80
28247;DHT22;66191;53.178;22.058;2023-04-19T13:05:22;16.00;68.60
28247;DHT22;66191;53.178;22.058;2023-04-19T13:07:54;16.00;70.20
28247;DHT22;66191;53.178;22.058;2023-04-19T13:10:25;15.90;71.50
28247;DHT22;66191;53.178;22.058;2023-04-19T13:12:56;15.90;72.20
28247;DHT22;66191;53.178;22.058;2023-04-19T13:15:27;15.80;75.80
28247;DHT22;66191;53.178;22.058;2023-04-19T13:17:59;15.70;78.20
28247;DHT22;66191;53.178;22.058;2023-04-19T13:20:33;15.60;79.50
28247;DHT22;66191;53.178;22.058;2023-04-19T13:23:04;15.50;79.80
28247;DHT22;66191;53.178;22.058;2023-04-19T13:25:35;15.40;79.60
28247;DHT22;66191;53.178;22.058;2023-04-19T13:28:06;15.30;80.70
28247;DHT22;66191;53.178;22.058;2023-04-19T13:30:38;15.20;79.80
28247;DHT22;66191;53.178;22.058;2023-04-19T13:33:09;15.10;81.80
28247;DHT22;66191;53.178;22.058;2023-04-19T13:35:43;15.00;84.30
28247;DHT22;66191;53.178;22.058;2023-04-19T13:38:14;14.80;86.60
28247;DHT22;66191;53.178;22.058;2023-04-19T13:40:45;14.60;89.40
28247;DHT22;66191;53.178;22.058;2023-04-19T13:43:17;14.50;90.60
28247;DHT22;66191;53.178;22.058;2023-04-19T13:45:48;14.30;91.70
28247;DHT22;66191;53.178;22.058;2023-04-19T13:48:21;14.20;92.00
28247;DHT22;66191;53.178;22.058;2023-04-19T13:50:58;14.00;91.40
28247;DHT22;66191;53.178;22.058;2023-04-19T13:53:29;13.90;92.20
28247;DHT22;66191;53.178;22.058;2023-04-19T13:56:00;13.90;93.30
28247;DHT22;66191;53.178;22.058;2023-04-19T13:58:33;13.80;93.00
28247;DHT22;66191;53.178;22.058;2023-04-19T14:01:04;13.80;93.10
28247;DHT22;66191;53.178;22.058;2023-04-19T14:03:35;13.70;93.30
28247;DHT22;66191;53.178;22.058;2023-04-19T14:06:09;13.60;93.10
28247;DHT22;66191;53.178;22.058;2023-04-19T14:08:41;13.60;93.40
28247;DHT22;66191;53.178;22.058;2023-04-19T14:11:12;13.50;94.20
28247;DHT22;66191;53.178;22.058;2023-04-19T14:13:43;13.40;93.80
28247;DHT22;66191;53.178;22.058;2023-04-19T14:16:15;13.20;94.10
28247;DHT22;66191;53.178;22.058;2023-04-19T14:18:47;12.90;94.50
28247;DHT22;66191;53.178;22.058;2023-04-19T14:21:21;12.70;94.50
28247;DHT22;66191;53.178;22.058;2023-04-19T14:23:53;12.50;94.80
28247;DHT22;66191;53.178;22.058;2023-04-19T14:26:24;12.50;95.20
28247;DHT22;66191;53.178;22.058;2023-04-19T14:28:55;12.50;96.00
28247;DHT22;66191;53.178;22.058;2023-04-19T14:31:26;12.50;96.00
28247;DHT22;66191;53.178;22.058;2023-04-19T14:33:57;12.50;95.50
28247;DHT22;66191;53.178;22.058;2023-04-19T14:36:31;12.40;94.80
28247;DHT22;66191;53.178;22.058;2023-04-19T14:39:03;12.40;95.10
28247;DHT22;66191;53.178;22.058;2023-04-19T14:41:35;12.30;95.40
28247;DHT22;66191;53.178;22.058;2023-04-19T14:44:06;12.30;95.10
28247;DHT22;66191;53.178;22.058;2023-04-19T14:46:37;12.30;95.70
28247;DHT22;66191;53.178;22.058;2023-04-19T14:49:09;12.30;96.70
28247;DHT22;66191;53.178;22.058;2023-04-19T14:51:43;12.30;95.70
28247;DHT22;66191;53.178;22.058;2023-04-19T14:54:15;12.30;95.90
28247;DHT22;66191;53.178;22.058;2023-04-19T14:56:48;12.30;96.10
28247;DHT22;66191;53.178;22.058;2023-04-19T14:59:21;12.30;96.80
28247;DHT22;66191;53.178;22.058;2023-04-19T15:01:56;12.30;96.20
28247;DHT22;66191;53.178;22.058;2023-04-19T15:04:27;12.30;96.10
28247;DHT22;66191;53.178;22.058;2023-04-19T15:07:01;12.30;96.00
28247;DHT22;66191;53.178;22.058;2023-04-19T15:09:33;12.30;95.50
28247;DHT22;66191;53.178;22.058;2023-04-19T15:12:04;12.30;95.10
28247;DHT22;66191;53.178;22.058;2023-04-19T15:14:36;12.30;95.50
28247;DHT22;66191;53.178;22.058;2023-04-19T15:17:11;12.40;95.50
28247;DHT22;66191;53.178;22.058;2023-04-19T15:19:44;12.40;95.80
28247;DHT22;66191;53.178;22.058;2023-04-19T15:22:18;12.40;95.80
28247;DHT22;66191;53.178;22.058;2023-04-19T15:24:50;12.50;95.70
28247;DHT22;66191;53.178;22.058;2023-04-19T15:27:22;12.50;95.60
28247;DHT22;66191;53.178;22.058;2023-04-19T15:29:54;12.50;95.60
28247;DHT22;66191;53.178;22.058;2023-04-19T15:32:25;12.50;95.00
28247;DHT22;66191;53.178;22.058;2023-04-19T15:35:01;12.50;95.20
28247;DHT22;66191;53.178;22.058;2023-04-19T15:37:35;12.50;95.20
28247;DHT22;66191;53.178;22.058;2023-04-19T15:40:09;12.60;95.80
28247;DHT22;66191;53.178;22.058;2023-04-19T15:42:41;12.60;95.40
28247;DHT22;66191;53.178;22.058;2023-04-19T15:45:12;12.60;95.00
28247;DHT22;66191;53.178;22.058;2023-04-19T15:47:43;12.60;94.90
28247;DHT22;66191;53.178;22.058;2023-04-19T15:50:14;12.50;94.20
28247;DHT22;66191;53.178;22.058;2023-04-19T15:52:48;12.50;94.10
28247;DHT22;66191;53.178;22.058;2023-04-19T15:55:19;12.50;93.00
28247;DHT22;66191;53.178;22.058;2023-04-19T15:57:51;12.60;92.90
28247;DHT22;66191;53.178;22.058;2023-04-19T16:00:23;12.60;93.10
28247;DHT22;66191;53.178;22.058;2023-04-19T16:02:55;12.60;93.40
28247;DHT22;66191;53.178;22.058;2023-04-19T16:05:27;12.60;93.00
28247;DHT22;66191;53.178;22.058;2023-04-19T16:08:02;12.60;93.10
28247;DHT22;66191;53.178;22.058;2023-04-19T16:10:34;12.60;92.60
28247;DHT22;66191;53.178;22.058;2023-04-19T16:13:07;12.60;92.70
28247;DHT22;66191;53.178;22.058;2023-04-19T16:15:41;12.70;92.30